createdAt,value
2022-12-11T00:00:37.782Z,9.63
2022-12-11T00:03:04.340Z,9.67
2022-12-11T00:05:32.485Z,9.62
2022-12-11T00:07:59.070Z,9.61
2022-12-11T00:10:25.651Z,9.55
2022-12-11T00:12:52.158Z,9.55
2022-12-11T00:15:18.639Z,9.59
2022-12-11T00:17:45.145Z,9.53
2022-12-11T00:20:11.844Z,9.54
2022-12-11T00:22:38.520Z,9.50
2022-12-11T00:25:05.384Z,9.54
2022-12-11T00:27:32.291Z,9.52
2022-12-11T00:29:59.410Z,9.53
2022-12-11T00:32:28.349Z,9.51
2022-12-11T00:34:55.021Z,9.50
2022-12-11T00:37:21.590Z,9.48
2022-12-11T00:39:48.161Z,9.49
2022-12-11T00:42:14.762Z,9.50
2022-12-11T00:44:41.555Z,9.51
2022-12-11T00:47:08.491Z,9.45
2022-12-11T00:49:35.219Z,9.44
2022-12-11T00:52:01.899Z,9.46
2022-12-11T00:54:28.561Z,9.46
2022-12-11T00:56:55.678Z,9.40
2022-12-11T00:59:22.363Z,9.46
2022-12-11T01:01:49.016Z,9.41
2022-12-11T01:04:15.620Z,9.41
2022-12-11T01:06:42.133Z,9.40
2022-12-11T01:09:27.457Z,9.39
2022-12-11T01:11:54.001Z,9.40
2022-12-11T01:14:20.725Z,9.38
2022-12-11T01:16:47.417Z,9.39
2022-12-11T01:19:14.229Z,9.41
2022-12-11T01:21:41.232Z,9.36
2022-12-11T01:24:07.907Z,9.37
2022-12-11T01:26:34.539Z,9.34
2022-12-11T01:29:01.443Z,9.41
2022-12-11T01:31:28.077Z,9.34
2022-12-11T01:33:55.415Z,9.34
2022-12-11T01:36:22.764Z,9.30
2022-12-11T01:38:49.738Z,9.29
2022-12-11T01:41:17.267Z,9.29
2022-12-11T01:44:00.384Z,9.31
2022-12-11T01:46:27.845Z,9.28
2022-12-11T01:48:54.784Z,9.27
2022-12-11T01:51:22.450Z,9.29
2022-12-11T01:53:51.679Z,9.27
2022-12-11T01:56:18.510Z,9.27
2022-12-11T01:58:51.631Z,9.25
2022-12-11T02:01:28.766Z,9.26
2022-12-11T02:03:55.887Z,9.26
2022-12-11T02:06:34.141Z,9.22
2022-12-11T02:09:01.365Z,9.23
2022-12-11T02:11:50.881Z,9.24
2022-12-11T02:14:26.403Z,9.22
2022-12-11T02:17:00.341Z,9.21
2022-12-11T02:19:29.375Z,9.23
2022-12-11T02:21:57.228Z,9.22
2022-12-11T02:24:30.873Z,9.23
2022-12-11T02:27:15.893Z,9.16
2022-12-11T02:30:00.941Z,9.18
2022-12-11T02:32:32.646Z,9.17
2022-12-11T02:35:14.134Z,9.18
2022-12-11T02:37:42.253Z,9.15
2022-12-11T02:40:11.165Z,9.12
2022-12-11T02:42:38.808Z,9.18
2022-12-11T02:45:07.851Z,9.13
2022-12-11T02:47:34.657Z,9.13
2022-12-11T02:50:02.456Z,9.12
2022-12-11T02:52:31.385Z,9.13
2022-12-11T02:55:00.331Z,9.11
2022-12-11T02:57:33.542Z,9.14
2022-12-11T03:00:00.147Z,9.10
2022-12-11T03:02:26.841Z,9.08
2022-12-11T03:04:54.023Z,9.13
2022-12-11T03:07:25.009Z,9.07
2022-12-11T03:09:52.353Z,9.08
2022-12-11T03:12:20.687Z,9.06
2022-12-11T03:14:48.930Z,9.12
2022-12-11T03:17:18.863Z,9.06
2022-12-11T03:19:45.353Z,9.06
2022-12-11T03:22:18.911Z,9.05
2022-12-11T03:24:48.179Z,9.04
2022-12-11T03:27:30.987Z,9.02
2022-12-11T03:30:00.307Z,9.08
2022-12-11T03:32:31.483Z,9.02
2022-12-11T03:35:05.828Z,9.03
2022-12-11T03:37:34.605Z,9.03
2022-12-11T03:40:05.132Z,9.00
2022-12-11T03:42:32.066Z,9.04
2022-12-11T03:45:00.162Z,9.08
2022-12-11T03:47:28.473Z,9.01
2022-12-11T03:49:56.719Z,8.99
2022-12-11T03:52:23.463Z,8.99
2022-12-11T03:54:50.885Z,9.01
2022-12-11T03:57:20.808Z,8.98
2022-12-11T03:59:47.647Z,8.98
2022-12-11T04:02:14.335Z,8.98
2022-12-11T04:04:42.047Z,8.99
2022-12-11T04:07:09.111Z,8.99
2022-12-11T04:09:36.221Z,9.00
2022-12-11T04:12:02.851Z,8.98
2022-12-11T04:14:48.032Z,9.07
2022-12-11T04:17:34.593Z,9.09
2022-12-11T04:20:19.815Z,9.00
2022-12-11T04:23:05.038Z,9.01
2022-12-11T04:25:31.749Z,9.59
2022-12-11T04:27:58.418Z,10.01
2022-12-11T04:30:29.415Z,10.15
2022-12-11T04:33:00.665Z,10.32
2022-12-11T04:35:27.569Z,10.48
2022-12-11T04:37:54.280Z,10.57
2022-12-11T04:40:21.134Z,10.66
2022-12-11T04:42:48.068Z,10.74
2022-12-11T04:45:14.737Z,10.99
2022-12-11T04:47:41.326Z,11.10
2022-12-11T04:50:09.831Z,11.15
2022-12-11T04:52:36.435Z,11.11
2022-12-11T04:55:04.581Z,11.25
2022-12-11T04:57:31.109Z,11.27
2022-12-11T04:59:57.716Z,11.34
2022-12-11T05:03:01.978Z,11.47
2022-12-11T05:05:28.603Z,11.45
2022-12-11T05:07:55.213Z,11.57
2022-12-11T05:10:21.837Z,11.62
2022-12-11T05:12:48.549Z,11.72
2022-12-11T05:18:04.180Z,11.85
2022-12-11T05:20:30.933Z,11.91
2022-12-11T05:22:57.924Z,11.96
2022-12-11T05:25:24.881Z,11.37
2022-12-11T05:27:51.964Z,11.03
2022-12-11T05:30:19.432Z,10.78
2022-12-11T05:32:46.754Z,10.63
2022-12-11T05:35:14.066Z,10.65
2022-12-11T05:37:41.028Z,10.58
2022-12-11T05:40:08.735Z,10.53
2022-12-11T05:42:35.441Z,10.46
2022-12-11T05:45:02.326Z,10.42
2022-12-11T05:47:29.109Z,10.38
2022-12-11T05:49:56.002Z,10.39
2022-12-11T05:52:22.972Z,10.40
2022-12-11T05:54:50.471Z,10.32
2022-12-11T05:57:17.266Z,10.28
2022-12-11T05:59:44.022Z,10.25
2022-12-11T06:02:11.166Z,10.23
2022-12-11T06:04:37.890Z,10.19
2022-12-11T06:07:04.747Z,10.19
2022-12-11T06:09:31.472Z,10.16
2022-12-11T06:11:58.303Z,10.14
2022-12-11T06:14:25.233Z,10.12
2022-12-11T06:16:52.263Z,10.09
2022-12-11T06:19:19.312Z,10.10
2022-12-11T06:21:46.794Z,10.09
2022-12-11T06:24:14.166Z,10.09
2022-12-11T06:26:41.090Z,10.09
2022-12-11T06:29:12.631Z,10.09
2022-12-11T06:31:40.190Z,10.10
2022-12-11T06:34:07.327Z,10.10
2022-12-11T06:36:35.205Z,10.11
2022-12-11T06:39:02.175Z,10.06
2022-12-11T06:41:29.325Z,10.04
2022-12-11T06:43:56.226Z,10.02
2022-12-11T06:46:23.615Z,9.98
2022-12-11T06:48:50.787Z,10.01
2022-12-11T06:51:20.304Z,10.07
2022-12-11T06:53:56.043Z,9.99
2022-12-11T06:56:24.330Z,9.94
2022-12-11T06:58:52.060Z,9.97
2022-12-11T07:01:24.944Z,9.97
2022-12-11T07:03:55.928Z,9.96
2022-12-11T07:06:23.604Z,9.90
2022-12-11T07:08:50.450Z,9.94
2022-12-11T07:11:19.151Z,9.97
2022-12-11T07:13:46.106Z,9.96
2022-12-11T07:16:14.501Z,9.90
2022-12-11T07:18:43.708Z,9.89
2022-12-11T07:21:13.049Z,9.95
2022-12-11T07:23:40.356Z,10.06
2022-12-11T07:26:10.914Z,10.06
2022-12-11T07:28:38.567Z,10.04
2022-12-11T07:31:14.029Z,10.08
2022-12-11T07:33:42.386Z,10.06
2022-12-11T07:36:11.791Z,10.05
2022-12-11T07:38:39.268Z,10.06
2022-12-11T07:41:08.803Z,10.04
2022-12-11T07:43:35.645Z,10.18
2022-12-11T07:46:04.750Z,10.07
2022-12-11T07:48:32.018Z,10.13
2022-12-11T07:51:15.135Z,10.09
2022-12-11T07:53:45.301Z,10.09
2022-12-11T07:56:12.800Z,10.12
2022-12-11T07:58:40.205Z,10.09
2022-12-11T08:01:12.480Z,10.17
2022-12-11T08:03:40.287Z,10.19
2022-12-11T08:06:07.380Z,10.22
2022-12-11T08:08:34.348Z,10.20
2022-12-11T08:11:05.134Z,10.26
2022-12-11T08:13:33.341Z,10.25
2022-12-11T08:16:04.584Z,10.21
2022-12-11T08:18:32.626Z,10.25
2022-12-11T08:20:59.549Z,10.55
2022-12-11T08:23:26.240Z,10.94
2022-12-11T08:25:53.077Z,11.20
2022-12-11T08:28:19.784Z,11.32
2022-12-11T08:30:47.166Z,11.58
2022-12-11T08:33:13.905Z,11.67
2022-12-11T08:35:41.708Z,11.78
2022-12-11T08:38:08.526Z,11.85
2022-12-11T08:40:35.251Z,11.87
2022-12-11T08:43:02.158Z,11.62
2022-12-11T08:45:28.991Z,11.19
2022-12-11T08:47:55.969Z,10.97
2022-12-11T08:50:23.064Z,10.98
2022-12-11T08:52:50.276Z,10.89
2022-12-11T08:55:17.380Z,10.79
2022-12-11T08:57:44.366Z,10.81
2022-12-11T09:00:12.618Z,10.74
2022-12-11T09:02:39.518Z,10.71
2022-12-11T09:05:08.246Z,10.69
2022-12-11T09:07:39.491Z,10.67
2022-12-11T09:10:07.588Z,10.70
2022-12-11T09:12:35.475Z,10.68
2022-12-11T09:15:02.845Z,10.66
2022-12-11T09:17:29.702Z,10.63
2022-12-11T09:19:56.421Z,10.68
2022-12-11T09:22:23.252Z,10.61
2022-12-11T09:24:50.382Z,10.66
2022-12-11T09:27:17.436Z,10.67
2022-12-11T09:29:44.307Z,10.58
2022-12-11T09:32:11.268Z,10.59
2022-12-11T09:34:38.259Z,10.68
2022-12-11T09:37:05.134Z,10.63
2022-12-11T09:39:31.972Z,10.54
2022-12-11T09:42:15.139Z,10.67
2022-12-11T09:44:50.097Z,10.70
2022-12-11T09:47:35.471Z,10.73
2022-12-11T09:50:12.857Z,10.75
2022-12-11T09:53:08.377Z,10.68
2022-12-11T09:55:59.223Z,10.73
2022-12-11T09:58:59.859Z,10.76
2022-12-11T10:01:41.501Z,10.74
2022-12-11T10:04:34.672Z,10.65
2022-12-11T10:07:23.094Z,10.75
2022-12-11T10:09:55.728Z,10.78
2022-12-11T10:12:31.229Z,10.82
2022-12-11T10:15:13.131Z,10.84
2022-12-11T10:17:42.392Z,10.83
2022-12-11T10:20:22.339Z,10.81
2022-12-11T10:22:52.100Z,10.81
2022-12-11T10:25:39.996Z,10.80
2022-12-11T10:28:15.000Z,10.83
2022-12-11T10:31:06.847Z,10.85
2022-12-11T10:33:36.373Z,10.95
2022-12-11T10:36:03.933Z,10.91
2022-12-11T10:38:33.358Z,10.88
2022-12-11T10:41:18.052Z,10.92
2022-12-11T10:43:50.152Z,10.96
2022-12-11T10:46:17.499Z,10.93
2022-12-11T10:49:00.634Z,10.98
2022-12-11T10:51:30.512Z,10.94
2022-12-11T10:54:17.368Z,10.93
2022-12-11T10:56:48.554Z,11.00
2022-12-11T10:59:47.331Z,11.00
2022-12-11T11:02:25.634Z,11.00
2022-12-11T11:04:54.742Z,11.00
2022-12-11T11:07:26.922Z,10.95
2022-12-11T11:10:12.125Z,11.03
2022-12-11T11:12:47.626Z,11.01
2022-12-11T11:15:20.337Z,11.04
2022-12-11T11:17:55.757Z,11.03
2022-12-11T11:20:27.253Z,11.09
2022-12-11T11:22:57.553Z,11.05
2022-12-11T11:25:27.861Z,11.15
2022-12-11T11:27:54.917Z,11.13
2022-12-11T11:30:28.263Z,11.10
2022-12-11T11:33:00.864Z,11.12
2022-12-11T11:35:29.918Z,11.14
2022-12-11T11:38:17.241Z,11.13
2022-12-11T11:41:14.911Z,11.14
2022-12-11T11:43:59.395Z,11.16
2022-12-11T11:46:48.685Z,11.16
2022-12-11T11:49:35.280Z,11.26
2022-12-11T11:52:13.409Z,11.16
2022-12-11T11:54:52.867Z,11.18
2022-12-11T11:57:38.318Z,11.14
2022-12-11T12:00:17.066Z,11.17
2022-12-11T12:02:47.111Z,11.18
2022-12-11T12:05:14.133Z,11.17
2022-12-11T12:08:17.772Z,11.23
2022-12-11T12:10:55.944Z,11.25
2022-12-11T12:16:57.674Z,11.33
2022-12-11T12:19:43.023Z,11.34
2022-12-11T12:22:28.129Z,11.56
2022-12-11T12:25:24.202Z,11.61
2022-12-11T12:28:15.511Z,11.72
2022-12-11T12:30:58.235Z,11.68
2022-12-11T12:34:22.776Z,11.75
2022-12-11T12:37:12.063Z,11.74
2022-12-11T12:40:07.789Z,11.57
2022-12-11T12:43:09.285Z,11.42
2022-12-11T12:45:54.345Z,11.41
2022-12-11T12:48:24.409Z,11.30
2022-12-11T12:50:51.629Z,11.34
2022-12-11T12:53:23.479Z,11.30
2022-12-11T12:55:51.982Z,11.31
2022-12-11T12:58:41.443Z,11.28
2022-12-11T13:01:19.671Z,11.28
2022-12-11T13:04:02.264Z,11.30
2022-12-11T13:06:45.593Z,11.27
2022-12-11T13:09:24.433Z,11.26
2022-12-11T13:11:56.703Z,11.25
2022-12-11T13:14:29.686Z,11.24
2022-12-11T13:17:26.457Z,11.26
2022-12-11T13:20:15.049Z,11.26
2022-12-11T13:23:19.224Z,11.29
2022-12-11T13:25:50.791Z,11.25
2022-12-11T13:28:32.193Z,11.28
2022-12-11T13:31:04.162Z,11.33
2022-12-11T13:33:32.600Z,11.41
2022-12-11T13:36:22.767Z,11.31
2022-12-11T13:38:55.729Z,11.30
2022-12-11T13:41:23.305Z,11.28
2022-12-11T13:43:51.858Z,11.29
2022-12-11T13:46:27.152Z,11.25
2022-12-11T13:49:01.041Z,11.25
2022-12-11T13:51:35.026Z,11.19
2022-12-11T13:54:17.902Z,11.19
2022-12-11T13:57:16.720Z,11.22
2022-12-11T13:59:49.031Z,11.27
2022-12-11T14:02:18.492Z,11.22
2022-12-11T14:04:47.926Z,11.22
2022-12-11T14:07:20.468Z,11.23
2022-12-11T14:09:47.539Z,11.25
2022-12-11T14:12:20.608Z,11.27
2022-12-11T14:14:55.035Z,11.24
2022-12-11T14:17:28.425Z,11.24
2022-12-11T14:19:58.141Z,11.31
2022-12-11T14:22:29.991Z,11.26
2022-12-11T14:25:03.732Z,11.23
2022-12-11T14:27:31.023Z,11.27
2022-12-11T14:29:57.807Z,11.27
2022-12-11T14:32:35.258Z,11.24
2022-12-11T14:35:05.993Z,11.28
2022-12-11T14:37:35.050Z,11.27
2022-12-11T14:40:14.597Z,11.28
2022-12-11T14:42:49.939Z,11.26
2022-12-11T14:45:20.252Z,11.27
2022-12-11T14:47:47.159Z,11.30
2022-12-11T14:50:16.936Z,11.27
2022-12-11T14:52:48.409Z,11.28
2022-12-11T14:55:19.921Z,11.31
2022-12-11T14:57:50.250Z,11.31
2022-12-11T15:00:26.781Z,11.28
2022-12-11T15:03:02.311Z,11.25
2022-12-11T15:05:33.344Z,11.25
2022-12-11T15:08:26.893Z,11.28
2022-12-11T15:11:12.077Z,11.29
2022-12-11T15:13:55.924Z,11.29
2022-12-11T15:16:25.495Z,11.30
2022-12-11T15:18:54.378Z,11.25
2022-12-11T15:21:34.044Z,11.30
2022-12-11T15:24:04.468Z,11.29
2022-12-11T15:26:38.307Z,11.28
2022-12-11T15:29:22.763Z,11.28
2022-12-11T15:32:04.148Z,11.25
2022-12-11T15:34:45.651Z,11.25
2022-12-11T15:37:19.736Z,11.26
2022-12-11T15:39:46.667Z,11.25
2022-12-11T15:42:23.091Z,11.25
2022-12-11T15:44:50.327Z,11.28
2022-12-11T15:47:23.712Z,11.27
2022-12-11T15:49:54.015Z,11.28
2022-12-11T15:52:20.919Z,11.26
2022-12-11T15:54:47.764Z,11.25
2022-12-11T15:57:19.424Z,11.21
2022-12-11T15:59:48.996Z,11.29
2022-12-11T16:02:16.646Z,11.28
2022-12-11T16:04:43.539Z,11.29
2022-12-11T16:07:22.366Z,11.34
2022-12-11T16:09:49.518Z,11.27
2022-12-11T16:12:16.828Z,11.24
2022-12-11T16:14:45.195Z,11.24
2022-12-11T16:17:14.277Z,11.28
2022-12-11T16:19:42.219Z,11.27
2022-12-11T16:22:10.035Z,11.24
2022-12-11T16:24:40.486Z,11.26
2022-12-11T16:27:09.942Z,11.29
2022-12-11T16:29:38.892Z,11.35
2022-12-11T16:32:09.859Z,11.32
2022-12-11T16:34:37.973Z,11.34
2022-12-11T16:37:06.848Z,11.33
2022-12-11T16:39:34.056Z,11.33
2022-12-11T16:42:00.829Z,11.30
2022-12-11T16:44:28.032Z,11.32
2022-12-11T16:46:55.436Z,11.33
2022-12-11T16:49:23.340Z,11.44
2022-12-11T16:51:50.404Z,11.31
2022-12-11T16:54:18.449Z,11.32
2022-12-11T16:56:45.426Z,11.37
2022-12-11T16:59:13.001Z,11.31
2022-12-11T17:01:40.977Z,11.33
2022-12-11T17:04:08.423Z,11.70
2022-12-11T17:06:37.872Z,12.08
2022-12-11T17:09:04.890Z,12.28
2022-12-11T17:11:31.738Z,12.42
2022-12-11T17:14:00.096Z,12.52
2022-12-11T17:16:30.413Z,12.57
2022-12-11T17:18:58.286Z,12.62
2022-12-11T17:21:25.376Z,12.76
2022-12-11T17:23:52.294Z,12.84
2022-12-11T17:26:20.237Z,12.92
2022-12-11T17:28:47.124Z,12.97
2022-12-11T17:31:17.253Z,13.09
2022-12-11T17:33:46.161Z,13.18
2022-12-11T17:36:15.366Z,13.18
2022-12-11T17:38:42.443Z,13.16
2022-12-11T17:41:16.837Z,12.65
2022-12-11T17:43:48.108Z,12.30
2022-12-11T17:46:15.193Z,12.16
2022-12-11T17:48:42.297Z,11.95
2022-12-11T17:51:11.726Z,11.93
2022-12-11T17:53:38.517Z,11.92
2022-12-11T17:56:07.717Z,11.88
2022-12-11T17:58:35.398Z,11.90
2022-12-11T18:01:08.140Z,11.94
2022-12-11T18:03:35.621Z,11.82
2022-12-11T18:06:09.991Z,11.89
2022-12-11T18:08:37.138Z,11.79
2022-12-11T18:11:09.220Z,11.82
2022-12-11T18:13:36.239Z,11.76
2022-12-11T18:16:11.986Z,11.74
2022-12-11T18:18:39.371Z,11.72
2022-12-11T18:21:06.367Z,11.71
2022-12-11T18:23:33.456Z,11.70
2022-12-11T18:26:00.394Z,11.72
2022-12-11T18:28:27.626Z,11.73
2022-12-11T18:30:54.437Z,11.71
2022-12-11T18:33:21.860Z,11.60
2022-12-11T18:35:50.538Z,11.69
2022-12-11T18:38:17.830Z,11.67
2022-12-11T18:40:45.310Z,11.64
2022-12-11T18:43:12.131Z,11.62
2022-12-11T18:45:42.807Z,11.68
2022-12-11T18:48:09.838Z,11.70
2022-12-11T18:50:37.031Z,11.65
2022-12-11T18:53:04.190Z,11.59
2022-12-11T18:55:31.134Z,11.62
2022-12-11T18:57:58.392Z,11.59
2022-12-11T19:00:27.018Z,11.62
2022-12-11T19:02:53.862Z,11.67
2022-12-11T19:05:20.757Z,11.63
2022-12-11T19:07:47.650Z,11.60
2022-12-11T19:10:14.652Z,11.56
2022-12-11T19:12:43.056Z,11.56
2022-12-11T19:15:10.807Z,11.58
2022-12-11T19:17:38.578Z,11.62
2022-12-11T19:20:32.247Z,11.54
2022-12-11T19:22:53.856Z,11.50
2022-12-11T19:25:20.665Z,11.54
2022-12-11T19:27:47.583Z,11.50
2022-12-11T19:30:14.380Z,11.51
2022-12-11T19:32:41.300Z,11.50
2022-12-11T19:35:08.168Z,11.53
2022-12-11T19:37:34.854Z,11.51
2022-12-11T19:40:04.923Z,11.52
2022-12-11T19:42:31.744Z,11.51
2022-12-11T19:44:58.690Z,11.48
2022-12-11T19:47:25.517Z,11.50
2022-12-11T19:49:52.453Z,11.51
2022-12-11T19:52:19.329Z,11.52
2022-12-11T19:54:46.161Z,11.56
2022-12-11T19:57:12.980Z,11.47
2022-12-11T19:59:40.888Z,11.42
2022-12-11T20:02:10.109Z,11.46
2022-12-11T20:04:37.221Z,11.47
2022-12-11T20:07:04.461Z,11.43
2022-12-11T20:09:33.368Z,11.43
2022-12-11T20:12:00.299Z,11.43
2022-12-11T20:14:27.449Z,11.44
2022-12-11T20:17:13.840Z,11.43
2022-12-11T20:19:42.547Z,11.40
2022-12-11T20:22:09.685Z,11.42
2022-12-11T20:24:37.319Z,11.35
2022-12-11T20:27:05.747Z,11.43
2022-12-11T20:29:32.665Z,11.37
2022-12-11T20:32:00.542Z,11.38
2022-12-11T20:34:27.965Z,11.33
2022-12-11T20:36:55.806Z,11.39
2022-12-11T20:39:22.852Z,11.38
2022-12-11T20:41:49.827Z,11.43
2022-12-11T20:44:16.841Z,11.39
2022-12-11T20:46:43.904Z,11.39
2022-12-11T20:49:13.114Z,11.29
2022-12-11T20:51:40.392Z,11.44
2022-12-11T20:54:07.430Z,11.38
2022-12-11T20:56:34.652Z,11.40
2022-12-11T20:59:01.548Z,11.40
2022-12-11T21:01:31.802Z,11.37
2022-12-11T21:04:00.089Z,11.39
2022-12-11T21:06:31.211Z,11.30
2022-12-11T21:09:00.365Z,11.40
2022-12-11T21:11:27.887Z,11.36
2022-12-11T21:13:55.124Z,11.30
2022-12-11T21:16:23.395Z,11.26
2022-12-11T21:18:50.665Z,11.38
2022-12-11T21:21:17.522Z,11.39
2022-12-11T21:23:44.668Z,11.38
2022-12-11T21:26:12.481Z,11.37
2022-12-11T21:28:39.510Z,11.33
2022-12-11T21:31:10.282Z,11.33
2022-12-11T21:33:37.595Z,11.33
2022-12-11T21:36:07.010Z,11.28
2022-12-11T21:38:34.050Z,11.27
2022-12-11T21:41:14.012Z,11.30
2022-12-11T21:44:03.245Z,11.24
2022-12-11T21:46:29.922Z,11.28
2022-12-11T21:48:56.807Z,11.26
2022-12-11T21:51:29.671Z,11.23
2022-12-11T21:53:59.985Z,11.23
2022-12-11T21:56:29.062Z,11.66
2022-12-11T21:58:55.976Z,12.07
2022-12-11T22:01:30.790Z,12.28
2022-12-11T22:03:59.143Z,12.46
2022-12-11T22:06:26.159Z,12.57
2022-12-11T22:08:53.363Z,12.68
2022-12-11T22:11:24.382Z,12.71
2022-12-11T22:13:51.276Z,12.83
2022-12-11T22:16:18.462Z,12.81
2022-12-11T22:18:45.785Z,12.85
2022-12-11T22:21:15.320Z,12.93
2022-12-11T22:23:42.752Z,12.94
2022-12-11T22:26:12.032Z,12.98
2022-12-11T22:28:38.867Z,12.90
2022-12-11T22:31:09.482Z,12.46
2022-12-11T22:33:36.334Z,12.24
2022-12-11T22:36:03.245Z,12.13
2022-12-11T22:38:29.954Z,11.95
2022-12-11T22:40:56.692Z,11.83
2022-12-11T22:43:23.643Z,11.74
2022-12-11T22:45:50.531Z,11.72
2022-12-11T22:48:17.472Z,11.63
2022-12-11T22:50:44.462Z,11.56
2022-12-11T22:53:11.727Z,11.60
2022-12-11T22:55:40.081Z,11.58
2022-12-11T22:58:07.585Z,11.51
2022-12-11T23:00:34.316Z,11.43
2022-12-11T23:03:02.066Z,11.47
2022-12-11T23:05:29.747Z,11.44
2022-12-11T23:07:56.774Z,11.26
2022-12-11T23:10:24.430Z,11.13
2022-12-11T23:12:51.336Z,11.08
2022-12-11T23:15:18.709Z,11.01
2022-12-11T23:17:45.574Z,10.95
2022-12-11T23:20:12.664Z,10.95
2022-12-11T23:22:39.733Z,10.83
2022-12-11T23:25:06.780Z,10.86
2022-12-11T23:27:33.687Z,10.76
2022-12-11T23:30:00.511Z,10.83
2022-12-11T23:32:27.438Z,10.94
2022-12-11T23:34:54.182Z,10.88
2022-12-11T23:37:21.114Z,10.98
2022-12-11T23:39:47.974Z,10.91
2022-12-11T23:42:15.111Z,10.81
2022-12-11T23:44:42.035Z,10.78
2022-12-11T23:47:08.893Z,10.81
2022-12-11T23:49:35.939Z,10.84
2022-12-11T23:52:02.766Z,10.85
2022-12-11T23:54:31.103Z,10.85
2022-12-11T23:56:58.087Z,10.86
2022-12-11T23:59:25.057Z,10.83
